sensor_id;sensor_type;location;lat;lon;timestamp;pressure;altitude;pressure_sealevel;temperature;humidity
17781;BME280;8498;52.516;13.790;2023-05-08T00:00:05;102197.50;;;9.23;80.47
17781;BME280;8498;52.516;13.790;2023-05-08T00:05:27;102195.38;;;9.09;81.10
17781;BME280;8498;52.516;13.790;2023-05-08T00:10:49;102191.81;;;9.10;81.03
17781;BME280;8498;52.516;13.790;2023-05-08T00:16:12;102193.69;;;9.07;81.17
17781;BME280;8498;52.516;13.790;2023-05-08T00:21:34;102198.94;;;9.08;81.07
17781;BME280;8498;52.516;13.790;2023-05-08T00:26:57;102186.84;;;9.01;80.94
17781;BME280;8498;52.516;13.790;2023-05-08T00:32:19;102188.63;;;9.01;80.99
17781;BME280;8498;52.516;13.790;2023-05-08T00:37:42;102189.66;;;8.97;80.76
17781;BME280;8498;52.516;13.790;2023-05-08T00:43:05;102200.56;;;8.89;81.35
17781;BME280;8498;52.516;13.790;2023-05-08T00:48:31;102177.56;;;8.90;80.97
17781;BME280;8498;52.516;13.790;2023-05-08T00:53:53;102180.38;;;8.85;81.00
17781;BME280;8498;52.516;13.790;2023-05-08T00:59:16;102192.13;;;8.78;80.97
17781;BME280;8498;52.516;13.790;2023-05-08T01:04:41;102197.81;;;8.67;81.24
17781;BME280;8498;52.516;13.790;2023-05-08T01:10:05;102195.84;;;8.72;81.07
17781;BME280;8498;52.516;13.790;2023-05-08T01:15:32;102203.94;;;8.69;80.72
17781;BME280;8498;52.516;13.790;2023-05-08T01:21:23;102213.19;;;8.58;80.90
17781;BME280;8498;52.516;13.790;2023-05-08T01:32:40;102218.75;;;8.50;81.36
17781;BME280;8498;52.516;13.790;2023-05-08T01:38:31;102218.38;;;8.36;82.14
17781;BME280;8498;52.516;13.790;2023-05-08T01:44:16;102221.28;;;8.27;82.25
17781;BME280;8498;52.516;13.790;2023-05-08T01:49:39;102218.13;;;8.16;82.11
17781;BME280;8498;52.516;13.790;2023-05-08T01:55:08;102217.53;;;8.07;81.91
17781;BME280;8498;52.516;13.790;2023-05-08T02:00:32;102225.72;;;8.00;82.72
17781;BME280;8498;52.516;13.790;2023-05-08T02:05:56;102223.22;;;7.95;82.77
17781;BME280;8498;52.516;13.790;2023-05-08T02:11:21;102236.47;;;7.95;82.84
17781;BME280;8498;52.516;13.790;2023-05-08T02:16:46;102227.03;;;7.87;83.53
17781;BME280;8498;52.516;13.790;2023-05-08T02:22:10;102224.75;;;7.76;83.03
17781;BME280;8498;52.516;13.790;2023-05-08T02:27:34;102229.69;;;7.59;83.96
17781;BME280;8498;52.516;13.790;2023-05-08T02:32:58;102242.81;;;7.62;84.13
17781;BME280;8498;52.516;13.790;2023-05-08T02:38:24;102232.16;;;7.65;83.65
17781;BME280;8498;52.516;13.790;2023-05-08T02:43:48;102229.88;;;7.53;83.56
17781;BME280;8498;52.516;13.790;2023-05-08T02:49:32;102221.28;;;7.46;83.94
17781;BME280;8498;52.516;13.790;2023-05-08T02:55:04;102221.59;;;7.35;84.07
17781;BME280;8498;52.516;13.790;2023-05-08T03:00:44;102223.50;;;7.30;84.75
17781;BME280;8498;52.516;13.790;2023-05-08T03:06:15;102221.78;;;7.29;84.24
17781;BME280;8498;52.516;13.790;2023-05-08T03:11:41;102221.88;;;7.26;84.90
17781;BME280;8498;52.516;13.790;2023-05-08T03:17:06;102228.72;;;7.33;85.16
17781;BME280;8498;52.516;13.790;2023-05-08T03:22:31;102215.78;;;7.24;85.73
17781;BME280;8498;52.516;13.790;2023-05-08T03:27:57;102222.88;;;7.22;85.95
17781;BME280;8498;52.516;13.790;2023-05-08T03:33:20;102228.06;;;7.25;86.19
17781;BME280;8498;52.516;13.790;2023-05-08T03:38:45;102222.69;;;7.28;86.21
17781;BME280;8498;52.516;13.790;2023-05-08T03:44:07;102222.88;;;7.22;85.82
17781;BME280;8498;52.516;13.790;2023-05-08T03:49:30;102235.22;;;7.22;86.11
17781;BME280;8498;52.516;13.790;2023-05-08T03:54:54;102227.38;;;7.19;86.64
17781;BME280;8498;52.516;13.790;2023-05-08T04:00:42;102224.69;;;7.20;86.73
17781;BME280;8498;52.516;13.790;2023-05-08T04:06:19;102239.63;;;7.21;85.92
17781;BME280;8498;52.516;13.790;2023-05-08T04:17:39;102257.16;;;7.25;86.64
17781;BME280;8498;52.516;13.790;2023-05-08T04:23:05;102257.94;;;7.27;86.37
17781;BME280;8498;52.516;13.790;2023-05-08T04:28:29;102255.16;;;7.33;86.64
17781;BME280;8498;52.516;13.790;2023-05-08T04:33:54;102263.72;;;7.42;86.55
17781;BME280;8498;52.516;13.790;2023-05-08T04:39:16;102265.09;;;7.55;85.78
17781;BME280;8498;52.516;13.790;2023-05-08T04:44:39;102277.03;;;7.68;84.96
17781;BME280;8498;52.516;13.790;2023-05-08T04:50:05;102280.59;;;7.67;84.83
17781;BME280;8498;52.516;13.790;2023-05-08T04:55:29;102285.06;;;7.65;84.92
17781;BME280;8498;52.516;13.790;2023-05-08T05:00:52;102298.69;;;7.79;84.72
17781;BME280;8498;52.516;13.790;2023-05-08T05:06:15;102304.53;;;7.90;84.29
17781;BME280;8498;52.516;13.790;2023-05-08T05:11:39;102308.75;;;7.97;84.43
17781;BME280;8498;52.516;13.790;2023-05-08T05:17:01;102304.63;;;8.15;83.59
17781;BME280;8498;52.516;13.790;2023-05-08T05:22:24;102307.28;;;8.15;83.45
17781;BME280;8498;52.516;13.790;2023-05-08T05:27:47;102314.75;;;8.30;82.99
17781;BME280;8498;52.516;13.790;2023-05-08T05:33:09;102319.56;;;8.45;82.67
17781;BME280;8498;52.516;13.790;2023-05-08T05:38:32;102317.22;;;9.12;82.66
17781;BME280;8498;52.516;13.790;2023-05-08T05:43:54;102320.47;;;8.96;80.56
17781;BME280;8498;52.516;13.790;2023-05-08T05:49:17;102318.47;;;9.02;80.38
17781;BME280;8498;52.516;13.790;2023-05-08T05:54:39;102318.34;;;9.05;79.43
17781;BME280;8498;52.516;13.790;2023-05-08T06:00:06;102321.97;;;9.28;79.18
17781;BME280;8498;52.516;13.790;2023-05-08T06:05:35;102312.19;;;9.53;77.84
17781;BME280;8498;52.516;13.790;2023-05-08T06:10:58;102320.34;;;9.70;76.95
17781;BME280;8498;52.516;13.790;2023-05-08T06:16:21;102323.41;;;9.83;75.77
17781;BME280;8498;52.516;13.790;2023-05-08T06:21:44;102331.13;;;9.89;74.30
17781;BME280;8498;52.516;13.790;2023-05-08T06:27:07;102320.28;;;9.95;74.20
17781;BME280;8498;52.516;13.790;2023-05-08T06:32:29;102331.03;;;10.14;73.48
17781;BME280;8498;52.516;13.790;2023-05-08T06:37:52;102335.84;;;10.27;72.92
17781;BME280;8498;52.516;13.790;2023-05-08T06:43:14;102313.13;;;10.41;72.33
17781;BME280;8498;52.516;13.790;2023-05-08T06:48:38;102321.59;;;10.50;72.78
17781;BME280;8498;52.516;13.790;2023-05-08T06:54:01;102319.63;;;10.76;72.11
17781;BME280;8498;52.516;13.790;2023-05-08T06:59:23;102319.03;;;10.89;70.87
17781;BME280;8498;52.516;13.790;2023-05-08T07:04:45;102318.63;;;11.19;70.57
17781;BME280;8498;52.516;13.790;2023-05-08T07:10:09;102321.94;;;11.43;67.69
17781;BME280;8498;52.516;13.790;2023-05-08T07:15:31;102314.94;;;11.60;63.19
17781;BME280;8498;52.516;13.790;2023-05-08T07:20:54;102323.75;;;11.81;62.08
17781;BME280;8498;52.516;13.790;2023-05-08T07:26:16;102322.44;;;12.08;62.61
17781;BME280;8498;52.516;13.790;2023-05-08T07:31:39;102312.53;;;12.29;58.33
17781;BME280;8498;52.516;13.790;2023-05-08T07:37:03;102332.94;;;12.47;58.26
17781;BME280;8498;52.516;13.790;2023-05-08T07:42:25;102320.78;;;12.59;55.63
17781;BME280;8498;52.516;13.790;2023-05-08T07:47:48;102315.94;;;12.84;56.64
17781;BME280;8498;52.516;13.790;2023-05-08T07:53:11;102320.72;;;12.95;54.14
17781;BME280;8498;52.516;13.790;2023-05-08T07:58:33;102313.38;;;13.17;53.25
17781;BME280;8498;52.516;13.790;2023-05-08T08:03:56;102318.69;;;13.50;55.76
17781;BME280;8498;52.516;13.790;2023-05-08T08:09:18;102313.91;;;14.04;53.25
17781;BME280;8498;52.516;13.790;2023-05-08T08:14:41;102314.22;;;14.14;50.65
17781;BME280;8498;52.516;13.790;2023-05-08T08:20:03;102308.34;;;14.23;51.62
17781;BME280;8498;52.516;13.790;2023-05-08T08:25:26;102310.06;;;14.24;49.39
17781;BME280;8498;52.516;13.790;2023-05-08T08:30:49;102312.25;;;14.49;50.29
17781;BME280;8498;52.516;13.790;2023-05-08T08:36:13;102300.91;;;14.59;47.47
17781;BME280;8498;52.516;13.790;2023-05-08T08:41:39;102305.31;;;14.75;46.62
17781;BME280;8498;52.516;13.790;2023-05-08T08:47:04;102289.44;;;15.01;46.25
17781;BME280;8498;52.516;13.790;2023-05-08T08:52:46;102288.03;;;15.24;45.58
17781;BME280;8498;52.516;13.790;2023-05-08T08:58:30;102290.63;;;15.54;45.51
17781;BME280;8498;52.516;13.790;2023-05-08T09:03:59;102292.22;;;15.71;45.25
17781;BME280;8498;52.516;13.790;2023-05-08T09:09:22;102281.56;;;15.84;43.66
17781;BME280;8498;52.516;13.790;2023-05-08T09:14:45;102284.25;;;16.10;43.71
17781;BME280;8498;52.516;13.790;2023-05-08T09:20:08;102287.88;;;16.63;42.78
17781;BME280;8498;52.516;13.790;2023-05-08T09:25:44;102275.03;;;16.68;42.27
17781;BME280;8498;52.516;13.790;2023-05-08T09:31:07;102267.53;;;16.99;42.39
17781;BME280;8498;52.516;13.790;2023-05-08T09:36:29;102263.09;;;17.36;42.31
17781;BME280;8498;52.516;13.790;2023-05-08T09:41:59;102266.59;;;17.61;41.31
17781;BME280;8498;52.516;13.790;2023-05-08T09:47:23;102256.25;;;17.81;41.59
17781;BME280;8498;52.516;13.790;2023-05-08T09:52:47;102258.16;;;17.91;38.61
17781;BME280;8498;52.516;13.790;2023-05-08T09:58:10;102259.28;;;18.48;39.56
17781;BME280;8498;52.516;13.790;2023-05-08T10:03:48;102252.38;;;18.32;38.23
17781;BME280;8498;52.516;13.790;2023-05-08T10:09:13;102258.06;;;18.87;38.86
17781;BME280;8498;52.516;13.790;2023-05-08T10:14:35;102251.34;;;19.37;38.34
17781;BME280;8498;52.516;13.790;2023-05-08T10:19:59;102253.94;;;19.38;37.11
17781;BME280;8498;52.516;13.790;2023-05-08T10:25:31;102260.56;;;19.57;37.96
17781;BME280;8498;52.516;13.790;2023-05-08T10:30:59;102243.75;;;19.64;37.50
17781;BME280;8498;52.516;13.790;2023-05-08T10:36:22;102249.31;;;19.95;36.46
17781;BME280;8498;52.516;13.790;2023-05-08T10:41:47;102233.66;;;19.89;36.69
17781;BME280;8498;52.516;13.790;2023-05-08T10:52:49;102235.50;;;20.52;36.08
17781;BME280;8498;52.516;13.790;2023-05-08T10:58:27;102229.22;;;19.99;36.35
17781;BME280;8498;52.516;13.790;2023-05-08T11:03:50;102223.06;;;19.97;36.56
17781;BME280;8498;52.516;13.790;2023-05-08T11:14:43;102202.09;;;20.32;35.48
17781;BME280;8498;52.516;13.790;2023-05-08T11:20:14;102204.22;;;20.49;35.15
17781;BME280;8498;52.516;13.790;2023-05-08T11:25:44;102196.53;;;20.66;34.72
17781;BME280;8498;52.516;13.790;2023-05-08T11:31:07;102197.16;;;21.09;34.00
17781;BME280;8498;52.516;13.790;2023-05-08T11:36:30;102194.72;;;20.76;33.57
17781;BME280;8498;52.516;13.790;2023-05-08T11:41:53;102191.56;;;20.71;33.86
17781;BME280;8498;52.516;13.790;2023-05-08T11:47:17;102194.00;;;20.74;34.02
17781;BME280;8498;52.516;13.790;2023-05-08T11:52:41;102176.91;;;21.24;32.52
17781;BME280;8498;52.516;13.790;2023-05-08T11:58:14;102174.47;;;21.21;34.08
17781;BME280;8498;52.516;13.790;2023-05-08T12:03:37;102174.53;;;21.50;33.31
17781;BME280;8498;52.516;13.790;2023-05-08T12:09:00;102171.03;;;21.69;32.92
17781;BME280;8498;52.516;13.790;2023-05-08T12:14:25;102164.91;;;21.67;32.12
17781;BME280;8498;52.516;13.790;2023-05-08T12:19:53;102162.88;;;21.59;32.43
17781;BME280;8498;52.516;13.790;2023-05-08T12:25:17;102170.56;;;21.45;31.64
17781;BME280;8498;52.516;13.790;2023-05-08T12:30:44;102167.03;;;21.14;31.82
17781;BME280;8498;52.516;13.790;2023-05-08T12:36:07;102163.06;;;21.77;32.83
17781;BME280;8498;52.516;13.790;2023-05-08T12:41:30;102163.75;;;21.60;30.94
17781;BME280;8498;52.516;13.790;2023-05-08T12:46:56;102148.72;;;22.06;31.17
17781;BME280;8498;52.516;13.790;2023-05-08T12:52:19;102163.53;;;22.21;30.64
17781;BME280;8498;52.516;13.790;2023-05-08T12:57:41;102144.97;;;22.26;31.28
17781;BME280;8498;52.516;13.790;2023-05-08T13:03:04;102134.06;;;21.99;31.44
17781;BME280;8498;52.516;13.790;2023-05-08T13:08:29;102143.78;;;23.04;31.30
17781;BME280;8498;52.516;13.790;2023-05-08T13:13:52;102129.66;;;23.00;29.83
17781;BME280;8498;52.516;13.790;2023-05-08T13:19:15;102122.91;;;22.67;29.48
17781;BME280;8498;52.516;13.790;2023-05-08T13:24:37;102124.97;;;22.46;29.22
17781;BME280;8498;52.516;13.790;2023-05-08T13:29:59;102124.59;;;22.41;29.22
17781;BME280;8498;52.516;13.790;2023-05-08T13:35:22;102114.13;;;22.56;29.57
17781;BME280;8498;52.516;13.790;2023-05-08T13:40:46;102104.88;;;22.49;29.28
17781;BME280;8498;52.516;13.790;2023-05-08T13:46:09;102093.63;;;22.44;29.95
17781;BME280;8498;52.516;13.790;2023-05-08T13:51:32;102082.72;;;23.00;30.19
17781;BME280;8498;52.516;13.790;2023-05-08T13:56:55;102078.56;;;22.68;29.17
17781;BME280;8498;52.516;13.790;2023-05-08T14:02:18;102067.97;;;22.48;29.50
17781;BME280;8498;52.516;13.790;2023-05-08T14:07:41;102078.22;;;22.44;29.09
17781;BME280;8498;52.516;13.790;2023-05-08T14:13:03;102067.22;;;22.55;29.62
17781;BME280;8498;52.516;13.790;2023-05-08T14:18:26;102067.59;;;22.70;28.69
17781;BME280;8498;52.516;13.790;2023-05-08T14:23:49;102065.69;;;22.53;29.32
17781;BME280;8498;52.516;13.790;2023-05-08T14:29:12;102059.72;;;22.77;28.47
17781;BME280;8498;52.516;13.790;2023-05-08T14:34:34;102064.34;;;22.57;30.51
17781;BME280;8498;52.516;13.790;2023-05-08T14:39:57;102059.19;;;23.00;29.66
17781;BME280;8498;52.516;13.790;2023-05-08T14:45:20;102046.94;;;22.22;30.14
17781;BME280;8498;52.516;13.790;2023-05-08T14:50:44;102043.59;;;22.11;29.78
17781;BME280;8498;52.516;13.790;2023-05-08T14:56:07;102045.63;;;22.36;30.54
17781;BME280;8498;52.516;13.790;2023-05-08T15:01:29;102037.41;;;22.55;30.08
17781;BME280;8498;52.516;13.790;2023-05-08T15:06:52;102032.47;;;22.51;29.39
17781;BME280;8498;52.516;13.790;2023-05-08T15:12:15;102037.53;;;22.26;29.86
17781;BME280;8498;52.516;13.790;2023-05-08T15:17:37;102036.75;;;22.44;30.10
17781;BME280;8498;52.516;13.790;2023-05-08T15:23:02;102027.84;;;22.24;29.81
17781;BME280;8498;52.516;13.790;2023-05-08T15:28:24;102039.59;;;22.05;29.57
17781;BME280;8498;52.516;13.790;2023-05-08T15:33:47;102034.19;;;22.05;30.62
17781;BME280;8498;52.516;13.790;2023-05-08T15:39:10;102024.91;;;22.45;29.78
17781;BME280;8498;52.516;13.790;2023-05-08T15:44:32;102031.28;;;22.26;29.92
17781;BME280;8498;52.516;13.790;2023-05-08T15:50:14;102024.47;;;22.12;30.53
17781;BME280;8498;52.516;13.790;2023-05-08T15:55:37;102032.75;;;21.91;30.27
17781;BME280;8498;52.516;13.790;2023-05-08T16:01:01;102016.81;;;21.88;31.59
17781;BME280;8498;52.516;13.790;2023-05-08T16:06:26;102016.25;;;21.75;31.75
17781;BME280;8498;52.516;13.790;2023-05-08T16:11:48;102014.00;;;21.51;32.10
17781;BME280;8498;52.516;13.790;2023-05-08T16:17:10;102016.53;;;21.05;32.71
17781;BME280;8498;52.516;13.790;2023-05-08T16:22:33;102007.06;;;20.80;32.46
17781;BME280;8498;52.516;13.790;2023-05-08T16:27:55;101995.31;;;20.41;32.25
17781;BME280;8498;52.516;13.790;2023-05-08T16:33:18;102008.19;;;20.07;32.93
17781;BME280;8498;52.516;13.790;2023-05-08T16:38:40;102001.88;;;19.97;33.39
17781;BME280;8498;52.516;13.790;2023-05-08T16:44:03;102000.91;;;19.77;34.01
17781;BME280;8498;52.516;13.790;2023-05-08T16:49:25;101992.09;;;19.43;34.79
17781;BME280;8498;52.516;13.790;2023-05-08T16:54:48;102003.50;;;19.15;35.52
17781;BME280;8498;52.516;13.790;2023-05-08T17:00:10;102001.47;;;18.96;35.51
17781;BME280;8498;52.516;13.790;2023-05-08T17:05:33;102003.88;;;18.67;35.14
17781;BME280;8498;52.516;13.790;2023-05-08T17:10:59;101999.81;;;18.61;35.39
17781;BME280;8498;52.516;13.790;2023-05-08T17:16:21;102002.88;;;18.57;36.01
17781;BME280;8498;52.516;13.790;2023-05-08T17:21:44;102008.13;;;18.36;36.29
17781;BME280;8498;52.516;13.790;2023-05-08T17:27:06;101999.09;;;18.15;35.98
17781;BME280;8498;52.516;13.790;2023-05-08T17:32:30;102012.63;;;18.02;36.59
17781;BME280;8498;52.516;13.790;2023-05-08T17:37:52;102003.06;;;17.87;36.46
17781;BME280;8498;52.516;13.790;2023-05-08T17:43:14;102012.97;;;17.75;36.69
17781;BME280;8498;52.516;13.790;2023-05-08T17:48:39;102020.31;;;17.60;37.58
17781;BME280;8498;52.516;13.790;2023-05-08T17:54:02;102008.69;;;17.49;37.35
17781;BME280;8498;52.516;13.790;2023-05-08T17:59:24;102016.63;;;17.27;37.77
17781;BME280;8498;52.516;13.790;2023-05-08T18:04:47;102011.47;;;17.12;37.37
17781;BME280;8498;52.516;13.790;2023-05-08T18:10:09;102024.47;;;17.06;38.03
17781;BME280;8498;52.516;13.790;2023-05-08T18:15:32;102023.81;;;16.78;38.79
17781;BME280;8498;52.516;13.790;2023-05-08T18:20:57;102035.66;;;16.63;39.53
17781;BME280;8498;52.516;13.790;2023-05-08T18:26:19;102036.94;;;16.45;39.89
17781;BME280;8498;52.516;13.790;2023-05-08T18:31:42;102032.44;;;16.33;40.93
17781;BME280;8498;52.516;13.790;2023-05-08T18:37:04;102024.84;;;16.14;41.22
17781;BME280;8498;52.516;13.790;2023-05-08T18:42:27;102035.03;;;15.96;41.78
17781;BME280;8498;52.516;13.790;2023-05-08T18:47:49;102033.72;;;15.89;42.02
17781;BME280;8498;52.516;13.790;2023-05-08T18:53:13;102047.63;;;15.69;42.48
17781;BME280;8498;52.516;13.790;2023-05-08T18:58:36;102046.06;;;15.52;43.17
17781;BME280;8498;52.516;13.790;2023-05-08T19:03:58;102049.66;;;15.38;43.34
17781;BME280;8498;52.516;13.790;2023-05-08T19:09:22;102047.06;;;15.24;44.34
17781;BME280;8498;52.516;13.790;2023-05-08T19:14:44;102045.94;;;15.14;43.84
17781;BME280;8498;52.516;13.790;2023-05-08T19:20:07;102063.75;;;15.01;44.44
17781;BME280;8498;52.516;13.790;2023-05-08T19:25:30;102061.88;;;14.89;44.48
17781;BME280;8498;52.516;13.790;2023-05-08T19:30:52;102060.66;;;14.80;45.34
17781;BME280;8498;52.516;13.790;2023-05-08T19:36:14;102059.59;;;14.68;45.29
17781;BME280;8498;52.516;13.790;2023-05-08T19:41:37;102058.47;;;14.44;46.12
17781;BME280;8498;52.516;13.790;2023-05-08T19:47:00;102058.81;;;14.24;46.89
17781;BME280;8498;52.516;13.790;2023-05-08T19:52:25;102065.28;;;14.06;47.47
17781;BME280;8498;52.516;13.790;2023-05-08T19:57:47;102065.25;;;13.91;48.01
17781;BME280;8498;52.516;13.790;2023-05-08T20:03:09;102061.88;;;13.74;48.72
17781;BME280;8498;52.516;13.790;2023-05-08T20:08:32;102068.38;;;13.54;49.00
17781;BME280;8498;52.516;13.790;2023-05-08T20:13:54;102067.03;;;13.47;49.75
17781;BME280;8498;52.516;13.790;2023-05-08T20:19:17;102067.66;;;13.36;49.99
17781;BME280;8498;52.516;13.790;2023-05-08T20:24:39;102065.19;;;13.17;50.37
17781;BME280;8498;52.516;13.790;2023-05-08T20:30:02;102060.31;;;13.08;51.32
17781;BME280;8498;52.516;13.790;2023-05-08T20:35:25;102068.41;;;12.91;51.77
17781;BME280;8498;52.516;13.790;2023-05-08T20:40:47;102060.34;;;12.77;52.34
17781;BME280;8498;52.516;13.790;2023-05-08T20:46:09;102061.09;;;12.63;52.62
17781;BME280;8498;52.516;13.790;2023-05-08T20:51:32;102064.00;;;12.59;53.26
17781;BME280;8498;52.516;13.790;2023-05-08T20:56:55;102047.72;;;12.47;53.54
17781;BME280;8498;52.516;13.790;2023-05-08T21:02:17;102050.09;;;12.36;54.42
17781;BME280;8498;52.516;13.790;2023-05-08T21:07:39;102047.84;;;12.29;54.82
17781;BME280;8498;52.516;13.790;2023-05-08T21:13:03;102052.66;;;12.22;55.19
17781;BME280;8498;52.516;13.790;2023-05-08T21:18:26;102056.81;;;12.10;55.78
17781;BME280;8498;52.516;13.790;2023-05-08T21:23:49;102062.38;;;12.06;56.22
17781;BME280;8498;52.516;13.790;2023-05-08T21:29:11;102055.44;;;11.86;57.50
17781;BME280;8498;52.516;13.790;2023-05-08T21:34:33;102054.47;;;11.70;58.23
17781;BME280;8498;52.516;13.790;2023-05-08T21:39:55;102056.03;;;11.57;59.06
17781;BME280;8498;52.516;13.790;2023-05-08T21:45:18;102055.94;;;11.41;59.97
17781;BME280;8498;52.516;13.790;2023-05-08T21:50:40;102060.16;;;11.28;60.75
17781;BME280;8498;52.516;13.790;2023-05-08T21:56:03;102054.16;;;11.23;61.20
17781;BME280;8498;52.516;13.790;2023-05-08T22:01:25;102052.91;;;11.13;62.20
17781;BME280;8498;52.516;13.790;2023-05-08T22:06:48;102050.81;;;11.00;61.81
17781;BME280;8498;52.516;13.790;2023-05-08T22:12:10;102041.44;;;10.93;62.79
17781;BME280;8498;52.516;13.790;2023-05-08T22:17:33;102042.72;;;10.85;63.25
17781;BME280;8498;52.516;13.790;2023-05-08T22:22:55;102037.84;;;10.76;63.52
17781;BME280;8498;52.516;13.790;2023-05-08T22:28:18;102035.56;;;10.68;63.97
17781;BME280;8498;52.516;13.790;2023-05-08T22:33:40;102036.63;;;10.64;64.10
17781;BME280;8498;52.516;13.790;2023-05-08T22:39:05;102032.53;;;10.57;64.45
17781;BME280;8498;52.516;13.790;2023-05-08T22:44:27;102039.16;;;10.48;65.30
17781;BME280;8498;52.516;13.790;2023-05-08T22:49:50;102030.44;;;10.45;65.65
17781;BME280;8498;52.516;13.790;2023-05-08T22:55:12;102028.44;;;10.50;65.61
17781;BME280;8498;52.516;13.790;2023-05-08T23:00:37;102021.13;;;10.55;65.37
17781;BME280;8498;52.516;13.790;2023-05-08T23:05:59;102015.66;;;10.58;65.19
17781;BME280;8498;52.516;13.790;2023-05-08T23:11:23;102014.56;;;10.62;64.42
17781;BME280;8498;52.516;13.790;2023-05-08T23:16:45;102005.16;;;10.74;64.31
17781;BME280;8498;52.516;13.790;2023-05-08T23:22:08;102003.38;;;10.74;64.42
17781;BME280;8498;52.516;13.790;2023-05-08T23:27:31;101994.16;;;10.81;64.00
17781;BME280;8498;52.516;13.790;2023-05-08T23:32:53;102001.50;;;10.76;63.92
17781;BME280;8498;52.516;13.790;2023-05-08T23:38:16;101993.28;;;10.81;64.09
17781;BME280;8498;52.516;13.790;2023-05-08T23:43:38;101983.69;;;10.78;64.02
17781;BME280;8498;52.516;13.790;2023-05-08T23:49:01;101979.50;;;10.73;64.04
17781;BME280;8498;52.516;13.790;2023-05-08T23:54:26;101972.53;;;10.70;63.52
17781;BME280;8498;52.516;13.790;2023-05-08T23:59:48;101969.19;;;10.66;63.44
